createdAt,value
2022-08-07T00:03:14.514Z,9.60
2022-08-07T00:08:36.427Z,5.05
2022-08-07T00:14:06.300Z,9.05
2022-08-07T00:20:00.031Z,6.45
2022-08-07T00:25:11.068Z,5.60
2022-08-07T00:30:38.751Z,9.60
2022-08-07T00:36:03.090Z,9.18
2022-08-07T00:41:26.570Z,6.85
2022-08-07T00:46:50.489Z,5.47
2022-08-07T00:52:13.067Z,6.97
2022-08-07T00:57:35.205Z,5.55
2022-08-07T01:02:59.326Z,5.57
2022-08-07T01:08:21.856Z,6.72
2022-08-07T01:13:55.992Z,8.38
2022-08-07T01:19:19.887Z,7.88
2022-08-07T01:24:42.463Z,6.15
2022-08-07T01:30:05.314Z,4.25
2022-08-07T01:35:52.820Z,10.18
2022-08-07T01:41:09.976Z,5.00
2022-08-07T01:46:33.311Z,3.95
2022-08-07T01:52:03.936Z,4.85
2022-08-07T01:57:30.080Z,4.30
2022-08-07T02:03:18.486Z,6.35
2022-08-07T02:08:46.311Z,4.63
2022-08-07T02:14:35.903Z,5.25
2022-08-07T02:20:04.718Z,4.72
2022-08-07T02:26:31.623Z,7.07
2022-08-07T02:31:28.499Z,4.32
2022-08-07T02:36:52.182Z,6.82
2022-08-07T02:42:16.378Z,8.30
2022-08-07T02:47:45.412Z,5.30
2022-08-07T02:53:17.967Z,7.38
2022-08-07T02:58:47.435Z,5.63
2022-08-07T03:04:14.005Z,5.70
2022-08-07T03:09:43.356Z,5.50
2022-08-07T03:15:08.154Z,7.32
2022-08-07T03:20:30.213Z,5.20
2022-08-07T03:25:58.492Z,5.93
2022-08-07T03:31:26.132Z,8.60
2022-08-07T03:37:12.678Z,3.35
2022-08-07T03:42:36.280Z,5.05
2022-08-07T03:47:59.643Z,5.93
2022-08-07T03:53:50.155Z,5.60
2022-08-07T03:59:10.047Z,7.50
2022-08-07T04:04:35.039Z,3.53
2022-08-07T04:09:56.996Z,5.18
2022-08-07T04:15:24.277Z,7.97
2022-08-07T04:20:54.610Z,5.40
2022-08-07T04:26:21.800Z,4.63
2022-08-07T04:32:03.117Z,3.97
2022-08-07T04:37:28.834Z,4.35
2022-08-07T04:42:51.723Z,3.83
2022-08-07T04:48:26.832Z,5.00
2022-08-07T04:54:05.683Z,2.95
2022-08-07T05:00:12.066Z,4.25
2022-08-07T05:05:59.996Z,4.13
2022-08-07T05:11:58.884Z,3.63
2022-08-07T05:17:13.620Z,3.70
2022-08-07T05:23:02.070Z,2.33
2022-08-07T05:28:26.717Z,3.50
2022-08-07T05:34:01.029Z,2.45
2022-08-07T05:40:16.671Z,3.67
2022-08-07T05:45:26.401Z,4.45
2022-08-07T05:50:51.734Z,1.93
2022-08-07T05:56:15.296Z,2.65
2022-08-07T06:01:40.695Z,4.18
2022-08-07T06:07:03.891Z,4.78
2022-08-07T06:12:27.831Z,2.30
2022-08-07T06:17:55.369Z,2.33
2022-08-07T06:23:47.174Z,3.55
2022-08-07T06:28:59.837Z,2.75
2022-08-07T06:34:29.630Z,2.70
2022-08-07T06:40:17.139Z,2.35
2022-08-07T06:45:35.683Z,3.72
2022-08-07T06:51:08.023Z,2.85
2022-08-07T06:56:31.601Z,1.63
2022-08-07T07:01:54.839Z,2.45
2022-08-07T07:08:00.274Z,3.60
2022-08-07T07:13:55.325Z,2.50
2022-08-07T07:19:34.018Z,2.55
2022-08-07T07:24:56.870Z,4.60
2022-08-07T07:30:37.726Z,2.10
2022-08-07T07:36:05.668Z,3.42
2022-08-07T07:42:02.150Z,3.88
2022-08-07T07:47:23.816Z,2.50
2022-08-07T07:52:47.362Z,2.20
2022-08-07T08:04:10.435Z,1.50
2022-08-07T08:09:20.627Z,2.35
2022-08-07T08:14:45.353Z,4.05
2022-08-07T08:20:18.168Z,3.03
2022-08-07T08:25:49.201Z,4.07
2022-08-07T08:31:30.151Z,3.03
2022-08-07T08:36:59.945Z,1.55
2022-08-07T08:42:31.931Z,2.17
2022-08-07T08:48:06.749Z,0.90
2022-08-07T08:53:39.313Z,1.63
2022-08-07T08:59:21.765Z,1.35
2022-08-07T09:04:57.603Z,1.58
2022-08-07T09:10:34.112Z,1.65
2022-08-07T09:16:21.523Z,1.95
2022-08-07T09:24:28.291Z,3.38
2022-08-07T09:28:01.058Z,1.85
2022-08-07T09:33:40.898Z,1.48
2022-08-07T09:39:54.568Z,1.63
2022-08-07T09:47:51.687Z,1.60
2022-08-07T09:52:09.873Z,1.88
2022-08-07T09:57:19.052Z,1.55
2022-08-07T10:02:55.476Z,1.92
2022-08-07T10:08:42.622Z,2.35
2022-08-07T10:14:31.219Z,2.72
2022-08-07T10:20:12.920Z,1.90
2022-08-07T10:25:47.016Z,1.73
2022-08-07T10:31:50.903Z,1.42
2022-08-07T10:37:59.978Z,2.63
2022-08-07T10:43:34.621Z,1.20
2022-08-07T10:49:13.231Z,1.90
2022-08-07T10:55:01.095Z,2.03
2022-08-07T11:00:39.172Z,4.63
2022-08-07T11:06:22.979Z,1.02
2022-08-07T11:12:14.207Z,1.50
2022-08-07T11:17:49.895Z,2.10
2022-08-07T11:23:38.700Z,2.50
2022-08-07T11:29:41.189Z,1.92
2022-08-07T11:35:09.354Z,1.97
2022-08-07T11:40:55.517Z,1.47
2022-08-07T11:46:36.693Z,1.48
2022-08-07T11:52:37.714Z,1.70
2022-08-07T11:58:14.591Z,2.67
2022-08-07T12:04:10.633Z,1.33
2022-08-07T12:09:37.682Z,1.20
2022-08-07T12:15:17.207Z,1.40
2022-08-07T12:22:36.567Z,1.02
2022-08-07T12:27:28.131Z,0.80
2022-08-07T12:33:18.741Z,1.83
2022-08-07T12:38:47.441Z,0.82
2022-08-07T12:44:21.585Z,1.73
2022-08-07T12:50:05.049Z,1.27
2022-08-07T12:56:02.125Z,1.80
2022-08-07T13:01:55.866Z,2.22
2022-08-07T13:08:12.512Z,2.05
2022-08-07T13:13:48.409Z,2.50
2022-08-07T13:19:22.350Z,0.60
2022-08-07T13:25:00.068Z,1.73
2022-08-07T13:30:40.439Z,1.50
2022-08-07T13:36:17.529Z,3.63
2022-08-07T13:41:47.311Z,3.30
2022-08-07T13:47:15.933Z,2.70
2022-08-07T13:52:48.153Z,2.90
2022-08-07T13:58:18.952Z,2.47
2022-08-07T14:04:07.699Z,0.98
2022-08-07T14:10:02.660Z,2.30
2022-08-07T14:15:27.431Z,2.15
2022-08-07T14:21:08.389Z,3.08
2022-08-07T14:26:58.598Z,2.45
2022-08-07T14:32:24.989Z,2.72
2022-08-07T14:38:03.251Z,2.13
2022-08-07T14:43:55.949Z,1.38
2022-08-07T14:49:17.498Z,1.98
2022-08-07T15:00:43.247Z,0.88
2022-08-07T15:06:05.633Z,2.17
2022-08-07T15:11:52.813Z,3.37
2022-08-07T15:17:25.335Z,2.20
2022-08-07T15:22:53.845Z,2.75
2022-08-07T15:34:02.129Z,1.85
2022-08-07T15:39:25.094Z,2.80
2022-08-07T15:44:51.757Z,1.50
2022-08-07T15:56:06.191Z,1.83
2022-08-07T16:01:38.527Z,4.40
2022-08-07T16:08:32.924Z,2.65
2022-08-07T16:13:57.555Z,3.47
2022-08-07T16:19:41.857Z,1.27
2022-08-07T16:25:54.380Z,1.60
2022-08-07T16:31:57.100Z,2.28
2022-08-07T16:38:04.037Z,2.03
2022-08-07T16:44:02.785Z,3.05
2022-08-07T16:50:27.885Z,2.13
2022-08-07T16:55:47.160Z,2.17
2022-08-07T17:01:09.781Z,2.72
2022-08-07T17:07:03.293Z,2.33
2022-08-07T17:12:44.149Z,3.58
2022-08-07T17:18:16.365Z,2.45
2022-08-07T17:24:06.002Z,2.75
2022-08-07T17:30:15.638Z,3.45
2022-08-07T17:35:55.202Z,2.72
2022-08-07T17:42:04.501Z,5.10
2022-08-07T17:47:58.033Z,4.25
2022-08-07T17:53:59.495Z,2.22
2022-08-07T17:59:20.991Z,4.22
2022-08-07T18:04:55.329Z,4.15
2022-08-07T18:10:32.257Z,4.22
2022-08-07T18:16:02.448Z,3.83
2022-08-07T18:21:53.611Z,7.13
2022-08-07T18:27:39.199Z,4.63
2022-08-07T18:33:10.767Z,6.32
2022-08-07T18:40:06.787Z,4.03
2022-08-07T18:45:44.124Z,2.83
2022-08-07T18:52:52.057Z,4.45
2022-08-07T18:57:39.982Z,3.83
2022-08-07T19:03:38.050Z,5.38
2022-08-07T19:09:55.984Z,4.32
2022-08-07T19:16:05.903Z,4.57
2022-08-07T19:21:44.223Z,3.55
2022-08-07T19:28:58.102Z,3.33
2022-08-07T19:33:01.408Z,3.22
2022-08-07T19:38:35.148Z,4.30
2022-08-07T19:44:21.213Z,9.27
2022-08-07T19:49:57.804Z,6.57
2022-08-07T19:55:21.407Z,4.18
2022-08-07T20:00:53.859Z,4.18
2022-08-07T20:06:30.409Z,5.22
2022-08-07T20:12:22.424Z,3.70
2022-08-07T20:17:40.397Z,5.93
2022-08-07T20:28:52.622Z,4.65
2022-08-07T20:34:34.467Z,5.97
2022-08-07T20:40:05.336Z,8.35
2022-08-07T20:46:26.007Z,37.28
2022-08-07T20:51:35.841Z,25.50
2022-08-07T20:57:03.693Z,22.70
2022-08-07T21:02:28.273Z,24.02
2022-08-07T21:07:56.905Z,9.82
2022-08-07T21:13:24.675Z,10.55
2022-08-07T21:19:03.649Z,23.00
2022-08-07T21:25:04.716Z,39.30
2022-08-07T21:30:54.927Z,73.85
2022-08-07T21:36:34.712Z,82.72
2022-08-07T21:42:14.999Z,89.47
2022-08-07T21:48:28.614Z,79.47
2022-08-07T21:53:53.681Z,77.65
2022-08-07T22:00:04.602Z,70.72
2022-08-07T22:05:45.878Z,68.07
2022-08-07T22:11:10.443Z,69.93
2022-08-07T22:16:54.708Z,31.70
2022-08-07T22:22:28.523Z,29.92
2022-08-07T22:28:29.634Z,29.80
2022-08-07T22:34:04.455Z,18.38
2022-08-07T22:39:58.974Z,15.13
2022-08-07T22:46:21.583Z,15.82
2022-08-07T22:51:38.424Z,10.63
2022-08-07T22:57:20.404Z,12.50
2022-08-07T23:02:56.994Z,12.77
2022-08-07T23:08:58.472Z,17.98
2022-08-07T23:15:08.191Z,16.67
2022-08-07T23:20:52.813Z,6.90
2022-08-07T23:26:25.254Z,4.53
2022-08-07T23:34:21.412Z,6.80
2022-08-07T23:38:36.596Z,6.90
2022-08-07T23:44:13.854Z,6.93
2022-08-07T23:50:06.655Z,6.00
2022-08-07T23:56:01.218Z,5.20
